Terminal Aerodrome Forecast
Issued by NWS Sterling, VA

Home | Current Version | Previous Version | Text Only | Print | Product List | Glossary On
Versions: 1 2 3 4 5 6 7 8 9 10 11 12 13 14 15 16 17 18
000
FTUS41 KLWX 021122
TAFMRB
TAF
KMRB 021122Z 0212/0312 02006KT P6SM BKN008 OVC015
     FM021900 03007KT P6SM BKN015 OVC025
     FM030500 05005KT P6SM OVC008
     FM031000 05006KT 6SM -SHRA OVC008=

USA.gov is the U.S. government's official web portal to all federal, state and local government web resources and services.